sensor_id;sensor_type;location;lat;lon;timestamp;P1;durP1;ratioP1;P2;durP2;ratioP2
64339;SDS011;50674;53.290;-9.080;2022-07-12T00:01:25;8.93;;;3.88;;
64339;SDS011;50674;53.290;-9.080;2022-07-12T00:07:12;7.63;;;3.67;;
64339;SDS011;50674;53.290;-9.080;2022-07-12T00:12:59;7.68;;;3.80;;
64339;SDS011;50674;53.290;-9.080;2022-07-12T00:18:46;7.35;;;3.90;;
64339;SDS011;50674;53.290;-9.080;2022-07-12T00:24:33;7.82;;;3.70;;
64339;SDS011;50674;53.290;-9.080;2022-07-12T00:30:20;8.45;;;3.42;;
64339;SDS011;50674;53.290;-9.080;2022-07-12T00:36:08;7.20;;;3.65;;
64339;SDS011;50674;53.290;-9.080;2022-07-12T00:41:56;7.35;;;3.60;;
64339;SDS011;50674;53.290;-9.080;2022-07-12T00:47:44;7.32;;;4.15;;
64339;SDS011;50674;53.290;-9.080;2022-07-12T00:53:33;7.32;;;4.20;;
64339;SDS011;50674;53.290;-9.080;2022-07-12T00:59:20;7.35;;;4.22;;
64339;SDS011;50674;53.290;-9.080;2022-07-12T01:05:07;8.93;;;4.45;;
64339;SDS011;50674;53.290;-9.080;2022-07-12T01:10:35;6.97;;;5.03;;
64339;SDS011;50674;53.290;-9.080;2022-07-12T01:16:25;9.07;;;4.60;;
64339;SDS011;50674;53.290;-9.080;2022-07-12T01:22:14;7.57;;;4.57;;
64339;SDS011;50674;53.290;-9.080;2022-07-12T01:28:03;9.75;;;4.80;;
64339;SDS011;50674;53.290;-9.080;2022-07-12T01:33:51;7.97;;;4.80;;
64339;SDS011;50674;53.290;-9.080;2022-07-12T01:39:38;9.25;;;4.68;;
64339;SDS011;50674;53.290;-9.080;2022-07-12T01:45:25;6.45;;;4.15;;
64339;SDS011;50674;53.290;-9.080;2022-07-12T01:51:13;7.40;;;4.60;;
64339;SDS011;50674;53.290;-9.080;2022-07-12T01:57:00;7.05;;;4.60;;
64339;SDS011;50674;53.290;-9.080;2022-07-12T02:05:49;9.43;;;4.20;;
64339;SDS011;50674;53.290;-9.080;2022-07-12T02:11:17;5.68;;;4.00;;
64339;SDS011;50674;53.290;-9.080;2022-07-12T02:17:05;7.75;;;4.55;;
64339;SDS011;50674;53.290;-9.080;2022-07-12T02:22:52;6.78;;;4.40;;
64339;SDS011;50674;53.290;-9.080;2022-07-12T02:28:39;5.38;;;3.92;;
64339;SDS011;50674;53.290;-9.080;2022-07-12T02:34:27;8.80;;;4.18;;
64339;SDS011;50674;53.290;-9.080;2022-07-12T02:40:17;5.13;;;4.30;;
64339;SDS011;50674;53.290;-9.080;2022-07-12T02:46:24;6.93;;;4.10;;
64339;SDS011;50674;53.290;-9.080;2022-07-12T02:52:12;12.90;;;4.65;;
64339;SDS011;50674;53.290;-9.080;2022-07-12T02:57:59;7.75;;;4.90;;
64339;SDS011;50674;53.290;-9.080;2022-07-12T03:03:27;6.47;;;4.57;;
64339;SDS011;50674;53.290;-9.080;2022-07-12T03:09:15;12.80;;;4.40;;
64339;SDS011;50674;53.290;-9.080;2022-07-12T03:15:02;7.18;;;4.50;;
64339;SDS011;50674;53.290;-9.080;2022-07-12T03:20:50;6.38;;;4.05;;
64339;SDS011;50674;53.290;-9.080;2022-07-12T03:26:39;9.80;;;5.05;;
64339;SDS011;50674;53.290;-9.080;2022-07-12T03:32:28;7.10;;;4.38;;
64339;SDS011;50674;53.290;-9.080;2022-07-12T03:38:15;7.03;;;4.10;;
64339;SDS011;50674;53.290;-9.080;2022-07-12T03:44:08;6.20;;;4.20;;
64339;SDS011;50674;53.290;-9.080;2022-07-12T03:49:55;6.60;;;3.83;;
64339;SDS011;50674;53.290;-9.080;2022-07-12T03:55:43;4.85;;;3.70;;
64339;SDS011;50674;53.290;-9.080;2022-07-12T04:01:31;7.40;;;4.40;;
64339;SDS011;50674;53.290;-9.080;2022-07-12T04:07:18;7.25;;;4.15;;
64339;SDS011;50674;53.290;-9.080;2022-07-12T04:13:06;7.93;;;4.88;;
64339;SDS011;50674;53.290;-9.080;2022-07-12T04:18:53;7.15;;;4.50;;
64339;SDS011;50674;53.290;-9.080;2022-07-12T04:24:41;6.00;;;4.20;;
64339;SDS011;50674;53.290;-9.080;2022-07-12T04:30:28;6.72;;;4.70;;
64339;SDS011;50674;53.290;-9.080;2022-07-12T04:36:16;6.03;;;4.28;;
64339;SDS011;50674;53.290;-9.080;2022-07-12T04:45:37;7.53;;;4.20;;
64339;SDS011;50674;53.290;-9.080;2022-07-12T04:51:25;6.72;;;4.32;;
64339;SDS011;50674;53.290;-9.080;2022-07-12T04:57:13;5.85;;;4.15;;
64339;SDS011;50674;53.290;-9.080;2022-07-12T05:03:01;10.77;;;4.72;;
64339;SDS011;50674;53.290;-9.080;2022-07-12T05:08:48;5.65;;;4.03;;
64339;SDS011;50674;53.290;-9.080;2022-07-12T05:14:35;8.52;;;4.53;;
64339;SDS011;50674;53.290;-9.080;2022-07-12T05:20:22;11.68;;;4.88;;
64339;SDS011;50674;53.290;-9.080;2022-07-12T05:26:09;10.50;;;3.90;;
64339;SDS011;50674;53.290;-9.080;2022-07-12T05:31:57;9.48;;;3.70;;
64339;SDS011;50674;53.290;-9.080;2022-07-12T05:37:44;9.00;;;3.55;;
64339;SDS011;50674;53.290;-9.080;2022-07-12T05:43:31;6.07;;;3.25;;
64339;SDS011;50674;53.290;-9.080;2022-07-12T05:49:22;9.85;;;3.25;;
64339;SDS011;50674;53.290;-9.080;2022-07-12T05:55:09;12.32;;;4.00;;
64339;SDS011;50674;53.290;-9.080;2022-07-12T06:00:57;12.60;;;4.00;;
64339;SDS011;50674;53.290;-9.080;2022-07-12T06:06:44;5.28;;;2.97;;
64339;SDS011;50674;53.290;-9.080;2022-07-12T06:12:31;8.52;;;3.60;;
64339;SDS011;50674;53.290;-9.080;2022-07-12T06:18:18;6.68;;;3.20;;
64339;SDS011;50674;53.290;-9.080;2022-07-12T06:24:05;9.30;;;3.92;;
64339;SDS011;50674;53.290;-9.080;2022-07-12T06:29:53;9.90;;;3.33;;
64339;SDS011;50674;53.290;-9.080;2022-07-12T06:35:40;11.90;;;3.90;;
64339;SDS011;50674;53.290;-9.080;2022-07-12T06:41:27;8.80;;;3.55;;
64339;SDS011;50674;53.290;-9.080;2022-07-12T06:47:16;6.45;;;3.40;;
64339;SDS011;50674;53.290;-9.080;2022-07-12T06:53:03;7.35;;;3.60;;
64339;SDS011;50674;53.290;-9.080;2022-07-12T06:58:50;9.93;;;4.40;;
64339;SDS011;50674;53.290;-9.080;2022-07-12T07:04:37;7.70;;;3.97;;
64339;SDS011;50674;53.290;-9.080;2022-07-12T07:10:24;21.23;;;4.50;;
64339;SDS011;50674;53.290;-9.080;2022-07-12T07:16:11;9.45;;;4.57;;
64339;SDS011;50674;53.290;-9.080;2022-07-12T07:21:59;12.43;;;3.83;;
64339;SDS011;50674;53.290;-9.080;2022-07-12T07:27:46;10.98;;;4.22;;
64339;SDS011;50674;53.290;-9.080;2022-07-12T07:33:34;5.18;;;3.63;;
64339;SDS011;50674;53.290;-9.080;2022-07-12T07:39:21;8.77;;;3.65;;
64339;SDS011;50674;53.290;-9.080;2022-07-12T07:45:08;6.28;;;3.80;;
64339;SDS011;50674;53.290;-9.080;2022-07-12T07:47:48;7.18;;;4.18;;
64339;SDS011;50674;53.290;-9.080;2022-07-12T07:53:36;7.28;;;4.00;;
64339;SDS011;50674;53.290;-9.080;2022-07-12T07:59:23;7.28;;;4.40;;
64339;SDS011;50674;53.290;-9.080;2022-07-12T08:05:10;6.18;;;3.40;;
64339;SDS011;50674;53.290;-9.080;2022-07-12T08:10:58;5.65;;;3.92;;
64339;SDS011;50674;53.290;-9.080;2022-07-12T08:16:45;8.70;;;4.13;;
64339;SDS011;50674;53.290;-9.080;2022-07-12T08:22:32;7.05;;;3.78;;
64339;SDS011;50674;53.290;-9.080;2022-07-12T08:28:19;5.95;;;3.58;;
64339;SDS011;50674;53.290;-9.080;2022-07-12T08:34:07;10.30;;;4.00;;
64339;SDS011;50674;53.290;-9.080;2022-07-12T08:39:54;8.45;;;4.07;;
64339;SDS011;50674;53.290;-9.080;2022-07-12T08:49:15;8.70;;;3.50;;
64339;SDS011;50674;53.290;-9.080;2022-07-12T08:55:05;5.55;;;3.88;;
64339;SDS011;50674;53.290;-9.080;2022-07-12T09:01:06;5.70;;;3.92;;
64339;SDS011;50674;53.290;-9.080;2022-07-12T09:06:54;4.88;;;3.42;;
64339;SDS011;50674;53.290;-9.080;2022-07-12T09:12:42;7.78;;;3.40;;
64339;SDS011;50674;53.290;-9.080;2022-07-12T09:18:30;19.92;;;3.50;;
64339;SDS011;50674;53.290;-9.080;2022-07-12T09:24:18;4.47;;;2.40;;
64339;SDS011;50674;53.290;-9.080;2022-07-12T09:30:06;5.55;;;2.70;;
64339;SDS011;50674;53.290;-9.080;2022-07-12T09:41:53;7.47;;;2.53;;
64339;SDS011;50674;53.290;-9.080;2022-07-12T09:51:28;6.82;;;2.53;;
64339;SDS011;50674;53.290;-9.080;2022-07-12T09:57:29;3.92;;;2.10;;
64339;SDS011;50674;53.290;-9.080;2022-07-12T10:03:20;3.75;;;2.10;;
64339;SDS011;50674;53.290;-9.080;2022-07-12T10:09:09;4.05;;;1.98;;
64339;SDS011;50674;53.290;-9.080;2022-07-12T10:14:59;6.30;;;1.85;;
64339;SDS011;50674;53.290;-9.080;2022-07-12T10:20:49;3.88;;;1.90;;
64339;SDS011;50674;53.290;-9.080;2022-07-12T10:26:37;6.63;;;1.90;;
64339;SDS011;50674;53.290;-9.080;2022-07-12T10:35:30;4.40;;;2.45;;
64339;SDS011;50674;53.290;-9.080;2022-07-12T10:41:18;6.97;;;2.20;;
64339;SDS011;50674;53.290;-9.080;2022-07-12T10:47:07;7.57;;;2.30;;
64339;SDS011;50674;53.290;-9.080;2022-07-12T10:53:17;5.22;;;2.00;;
64339;SDS011;50674;53.290;-9.080;2022-07-12T10:59:21;6.82;;;2.45;;
64339;SDS011;50674;53.290;-9.080;2022-07-12T11:05:10;7.13;;;2.40;;
64339;SDS011;50674;53.290;-9.080;2022-07-12T11:10:57;5.80;;;2.10;;
64339;SDS011;50674;53.290;-9.080;2022-07-12T11:16:26;4.57;;;1.63;;
64339;SDS011;50674;53.290;-9.080;2022-07-12T11:19:10;7.40;;;1.95;;
64339;SDS011;50674;53.290;-9.080;2022-07-12T11:24:58;4.53;;;1.80;;
64339;SDS011;50674;53.290;-9.080;2022-07-12T11:30:48;3.30;;;1.33;;
64339;SDS011;50674;53.290;-9.080;2022-07-12T11:36:38;3.63;;;1.70;;
64339;SDS011;50674;53.290;-9.080;2022-07-12T11:42:26;4.10;;;1.80;;
64339;SDS011;50674;53.290;-9.080;2022-07-12T11:48:13;6.55;;;2.75;;
64339;SDS011;50674;53.290;-9.080;2022-07-12T11:54:00;6.05;;;2.92;;
64339;SDS011;50674;53.290;-9.080;2022-07-12T11:59:47;6.47;;;2.45;;
64339;SDS011;50674;53.290;-9.080;2022-07-12T12:05:35;7.43;;;2.80;;
64339;SDS011;50674;53.290;-9.080;2022-07-12T12:11:27;6.75;;;2.70;;
64339;SDS011;50674;53.290;-9.080;2022-07-12T12:17:19;4.95;;;2.80;;
64339;SDS011;50674;53.290;-9.080;2022-07-12T12:22:48;4.85;;;2.63;;
64339;SDS011;50674;53.290;-9.080;2022-07-12T12:28:43;5.15;;;2.70;;
64339;SDS011;50674;53.290;-9.080;2022-07-12T12:34:34;5.88;;;2.60;;
64339;SDS011;50674;53.290;-9.080;2022-07-12T12:40:23;5.15;;;2.63;;
64339;SDS011;50674;53.290;-9.080;2022-07-12T12:46:21;6.00;;;3.08;;
64339;SDS011;50674;53.290;-9.080;2022-07-12T12:52:08;5.03;;;2.80;;
64339;SDS011;50674;53.290;-9.080;2022-07-12T12:57:56;5.18;;;2.90;;
64339;SDS011;50674;53.290;-9.080;2022-07-12T13:03:43;4.22;;;2.40;;
64339;SDS011;50674;53.290;-9.080;2022-07-12T13:09:30;3.03;;;2.40;;
64339;SDS011;50674;53.290;-9.080;2022-07-12T13:15:18;3.10;;;2.30;;
64339;SDS011;50674;53.290;-9.080;2022-07-12T13:21:05;3.05;;;1.63;;
64339;SDS011;50674;53.290;-9.080;2022-07-12T13:26:33;2.40;;;1.52;;
64339;SDS011;50674;53.290;-9.080;2022-07-12T13:32:01;3.88;;;2.10;;
64339;SDS011;50674;53.290;-9.080;2022-07-12T13:37:30;2.92;;;2.10;;
64339;SDS011;50674;53.290;-9.080;2022-07-12T13:42:58;2.42;;;1.67;;
64339;SDS011;50674;53.290;-9.080;2022-07-12T13:48:26;4.68;;;1.80;;
64339;SDS011;50674;53.290;-9.080;2022-07-12T13:54:14;2.67;;;1.63;;
64339;SDS011;50674;53.290;-9.080;2022-07-12T13:59:42;4.53;;;1.48;;
64339;SDS011;50674;53.290;-9.080;2022-07-12T14:05:11;4.13;;;1.83;;
64339;SDS011;50674;53.290;-9.080;2022-07-12T14:10:59;6.35;;;1.83;;
64339;SDS011;50674;53.290;-9.080;2022-07-12T14:16:27;5.50;;;1.90;;
64339;SDS011;50674;53.290;-9.080;2022-07-12T14:22:15;4.10;;;2.22;;
64339;SDS011;50674;53.290;-9.080;2022-07-12T14:28:02;8.30;;;2.83;;
64339;SDS011;50674;53.290;-9.080;2022-07-12T14:33:49;10.80;;;2.67;;
64339;SDS011;50674;53.290;-9.080;2022-07-12T14:39:36;14.48;;;3.58;;
64339;SDS011;50674;53.290;-9.080;2022-07-12T14:45:24;10.82;;;2.67;;
64339;SDS011;50674;53.290;-9.080;2022-07-12T14:55:10;6.60;;;1.90;;
64339;SDS011;50674;53.290;-9.080;2022-07-12T15:00:59;7.30;;;1.77;;
64339;SDS011;50674;53.290;-9.080;2022-07-12T15:06:46;16.95;;;2.53;;
64339;SDS011;50674;53.290;-9.080;2022-07-12T15:12:34;14.88;;;2.60;;
64339;SDS011;50674;53.290;-9.080;2022-07-12T15:18:22;18.77;;;3.58;;
64339;SDS011;50674;53.290;-9.080;2022-07-12T15:24:10;17.88;;;3.22;;
64339;SDS011;50674;53.290;-9.080;2022-07-12T15:29:58;22.00;;;3.72;;
64339;SDS011;50674;53.290;-9.080;2022-07-12T15:35:45;18.92;;;3.25;;
64339;SDS011;50674;53.290;-9.080;2022-07-12T15:41:33;14.50;;;3.53;;
64339;SDS011;50674;53.290;-9.080;2022-07-12T15:44:18;15.50;;;3.28;;
64339;SDS011;50674;53.290;-9.080;2022-07-12T15:50:09;16.83;;;2.60;;
64339;SDS011;50674;53.290;-9.080;2022-07-12T15:56:06;8.85;;;2.08;;
64339;SDS011;50674;53.290;-9.080;2022-07-12T16:01:57;10.63;;;2.08;;
64339;SDS011;50674;53.290;-9.080;2022-07-12T16:07:26;20.23;;;3.28;;
64339;SDS011;50674;53.290;-9.080;2022-07-12T16:12:54;16.95;;;2.90;;
64339;SDS011;50674;53.290;-9.080;2022-07-12T16:18:22;10.95;;;2.78;;
64339;SDS011;50674;53.290;-9.080;2022-07-12T16:24:11;17.02;;;3.08;;
64339;SDS011;50674;53.290;-9.080;2022-07-12T16:29:39;18.58;;;2.55;;
64339;SDS011;50674;53.290;-9.080;2022-07-12T16:35:07;10.35;;;2.60;;
64339;SDS011;50674;53.290;-9.080;2022-07-12T16:44:06;14.68;;;3.08;;
64339;SDS011;50674;53.290;-9.080;2022-07-12T16:49:34;21.15;;;3.25;;
64339;SDS011;50674;53.290;-9.080;2022-07-12T16:54:32;15.05;;;2.67;;
64339;SDS011;50674;53.290;-9.080;2022-07-12T16:57:03;14.75;;;2.72;;
64339;SDS011;50674;53.290;-9.080;2022-07-12T16:59:31;14.43;;;3.10;;
64339;SDS011;50674;53.290;-9.080;2022-07-12T17:01:56;16.08;;;2.85;;
64339;SDS011;50674;53.290;-9.080;2022-07-12T17:06:47;15.55;;;3.15;;
64339;SDS011;50674;53.290;-9.080;2022-07-12T17:09:14;18.13;;;2.75;;
64339;SDS011;50674;53.290;-9.080;2022-07-12T17:11:39;16.70;;;3.47;;
64339;SDS011;50674;53.290;-9.080;2022-07-12T17:16:32;18.27;;;3.75;;
64339;SDS011;50674;53.290;-9.080;2022-07-12T17:18:58;10.77;;;2.45;;
64339;SDS011;50674;53.290;-9.080;2022-07-12T17:21:29;24.90;;;3.50;;
64339;SDS011;50674;53.290;-9.080;2022-07-12T17:23:55;23.52;;;4.45;;
64339;SDS011;50674;53.290;-9.080;2022-07-12T17:26:21;13.80;;;2.78;;
64339;SDS011;50674;53.290;-9.080;2022-07-12T17:28:47;14.55;;;3.35;;
64339;SDS011;50674;53.290;-9.080;2022-07-12T17:31:14;15.40;;;3.08;;
64339;SDS011;50674;53.290;-9.080;2022-07-12T17:33:40;13.93;;;3.20;;
64339;SDS011;50674;53.290;-9.080;2022-07-12T17:36:07;12.25;;;2.70;;
64339;SDS011;50674;53.290;-9.080;2022-07-12T17:38:36;14.13;;;2.80;;
64339;SDS011;50674;53.290;-9.080;2022-07-12T17:43:28;12.85;;;2.85;;
64339;SDS011;50674;53.290;-9.080;2022-07-12T17:45:54;11.73;;;2.60;;
64339;SDS011;50674;53.290;-9.080;2022-07-12T17:51:22;13.45;;;2.28;;
64339;SDS011;50674;53.290;-9.080;2022-07-12T17:56:13;11.73;;;2.97;;
64339;SDS011;50674;53.290;-9.080;2022-07-12T18:01:42;12.95;;;2.90;;
64339;SDS011;50674;53.290;-9.080;2022-07-12T18:07:10;9.93;;;3.45;;
64339;SDS011;50674;53.290;-9.080;2022-07-12T18:12:39;10.45;;;2.30;;
64339;SDS011;50674;53.290;-9.080;2022-07-12T18:18:44;14.40;;;3.00;;
64339;SDS011;50674;53.290;-9.080;2022-07-12T18:24:12;10.70;;;2.38;;
64339;SDS011;50674;53.290;-9.080;2022-07-12T18:29:41;10.32;;;2.65;;
64339;SDS011;50674;53.290;-9.080;2022-07-12T18:35:09;16.17;;;2.72;;
64339;SDS011;50674;53.290;-9.080;2022-07-12T18:40:59;15.30;;;3.95;;
64339;SDS011;50674;53.290;-9.080;2022-07-12T18:46:27;22.85;;;2.92;;
64339;SDS011;50674;53.290;-9.080;2022-07-12T18:55:49;19.30;;;2.83;;
64339;SDS011;50674;53.290;-9.080;2022-07-12T19:01:36;16.58;;;2.63;;
64339;SDS011;50674;53.290;-9.080;2022-07-12T19:07:23;16.55;;;3.03;;
64339;SDS011;50674;53.290;-9.080;2022-07-12T19:13:10;12.38;;;2.75;;
64339;SDS011;50674;53.290;-9.080;2022-07-12T19:18:57;12.88;;;2.58;;
64339;SDS011;50674;53.290;-9.080;2022-07-12T19:24:44;21.38;;;3.00;;
64339;SDS011;50674;53.290;-9.080;2022-07-12T19:30:31;14.18;;;2.40;;
64339;SDS011;50674;53.290;-9.080;2022-07-12T19:36:19;14.48;;;2.30;;
64339;SDS011;50674;53.290;-9.080;2022-07-12T19:41:48;19.48;;;3.00;;
64339;SDS011;50674;53.290;-9.080;2022-07-12T19:47:35;12.85;;;2.75;;
64339;SDS011;50674;53.290;-9.080;2022-07-12T19:53:22;14.85;;;2.70;;
64339;SDS011;50674;53.290;-9.080;2022-07-12T19:59:09;17.65;;;3.20;;
64339;SDS011;50674;53.290;-9.080;2022-07-12T20:04:56;10.60;;;2.25;;
64339;SDS011;50674;53.290;-9.080;2022-07-12T20:10:43;15.80;;;3.88;;
64339;SDS011;50674;53.290;-9.080;2022-07-12T20:16:30;13.85;;;2.65;;
64339;SDS011;50674;53.290;-9.080;2022-07-12T20:21:59;13.85;;;3.20;;
64339;SDS011;50674;53.290;-9.080;2022-07-12T20:27:46;11.10;;;2.90;;
64339;SDS011;50674;53.290;-9.080;2022-07-12T20:33:34;10.65;;;2.42;;
64339;SDS011;50674;53.290;-9.080;2022-07-12T20:39:39;15.60;;;2.55;;
64339;SDS011;50674;53.290;-9.080;2022-07-12T20:45:28;7.90;;;2.70;;
64339;SDS011;50674;53.290;-9.080;2022-07-12T20:50:47;8.85;;;2.22;;
64339;SDS011;50674;53.290;-9.080;2022-07-12T20:53:12;6.53;;;2.15;;
64339;SDS011;50674;53.290;-9.080;2022-07-12T20:55:38;14.63;;;2.60;;
64339;SDS011;50674;53.290;-9.080;2022-07-12T20:58:05;12.32;;;2.55;;
64339;SDS011;50674;53.290;-9.080;2022-07-12T21:00:31;11.02;;;2.33;;
64339;SDS011;50674;53.290;-9.080;2022-07-12T21:02:57;12.23;;;2.70;;
64339;SDS011;50674;53.290;-9.080;2022-07-12T21:05:22;9.20;;;2.60;;
64339;SDS011;50674;53.290;-9.080;2022-07-12T21:07:48;12.32;;;2.63;;
64339;SDS011;50674;53.290;-9.080;2022-07-12T21:10:14;8.32;;;2.40;;
64339;SDS011;50674;53.290;-9.080;2022-07-12T21:12:39;18.73;;;2.60;;
64339;SDS011;50674;53.290;-9.080;2022-07-12T21:15:06;11.52;;;2.42;;
64339;SDS011;50674;53.290;-9.080;2022-07-12T21:17:42;11.77;;;2.88;;
64339;SDS011;50674;53.290;-9.080;2022-07-12T21:20:09;7.45;;;2.25;;
64339;SDS011;50674;53.290;-9.080;2022-07-12T21:22:38;7.03;;;2.38;;
64339;SDS011;50674;53.290;-9.080;2022-07-12T21:25:04;7.47;;;2.22;;
64339;SDS011;50674;53.290;-9.080;2022-07-12T21:27:31;9.48;;;2.30;;
64339;SDS011;50674;53.290;-9.080;2022-07-12T21:29:58;8.35;;;2.88;;
64339;SDS011;50674;53.290;-9.080;2022-07-12T21:32:25;7.18;;;2.78;;
64339;SDS011;50674;53.290;-9.080;2022-07-12T21:34:53;10.82;;;2.72;;
64339;SDS011;50674;53.290;-9.080;2022-07-12T21:37:19;7.47;;;2.15;;
64339;SDS011;50674;53.290;-9.080;2022-07-12T21:42:11;9.52;;;2.00;;
64339;SDS011;50674;53.290;-9.080;2022-07-12T21:44:39;8.35;;;2.08;;
64339;SDS011;50674;53.290;-9.080;2022-07-12T21:47:05;6.57;;;2.00;;
64339;SDS011;50674;53.290;-9.080;2022-07-12T21:49:31;7.15;;;1.90;;
64339;SDS011;50674;53.290;-9.080;2022-07-12T21:51:57;9.70;;;2.28;;
64339;SDS011;50674;53.290;-9.080;2022-07-12T21:54:23;6.82;;;2.45;;
64339;SDS011;50674;53.290;-9.080;2022-07-12T21:56:49;10.52;;;2.30;;
64339;SDS011;50674;53.290;-9.080;2022-07-12T21:59:15;10.27;;;2.80;;
64339;SDS011;50674;53.290;-9.080;2022-07-12T22:01:42;4.72;;;2.20;;
64339;SDS011;50674;53.290;-9.080;2022-07-12T22:04:08;15.77;;;2.50;;
64339;SDS011;50674;53.290;-9.080;2022-07-12T22:06:34;9.73;;;2.70;;
64339;SDS011;50674;53.290;-9.080;2022-07-12T22:08:59;17.05;;;2.70;;
64339;SDS011;50674;53.290;-9.080;2022-07-12T22:11:25;5.80;;;2.83;;
64339;SDS011;50674;53.290;-9.080;2022-07-12T22:13:52;6.68;;;2.28;;
64339;SDS011;50674;53.290;-9.080;2022-07-12T22:18:43;8.48;;;2.42;;
64339;SDS011;50674;53.290;-9.080;2022-07-12T22:21:09;6.32;;;2.25;;
64339;SDS011;50674;53.290;-9.080;2022-07-12T22:23:36;6.82;;;2.25;;
64339;SDS011;50674;53.290;-9.080;2022-07-12T22:26:03;5.03;;;2.10;;
64339;SDS011;50674;53.290;-9.080;2022-07-12T22:34:39;7.00;;;1.95;;
64339;SDS011;50674;53.290;-9.080;2022-07-12T22:40:26;7.82;;;2.35;;
64339;SDS011;50674;53.290;-9.080;2022-07-12T22:46:08;5.95;;;1.92;;
64339;SDS011;50674;53.290;-9.080;2022-07-12T22:55:07;7.25;;;2.60;;
64339;SDS011;50674;53.290;-9.080;2022-07-12T23:07:38;5.10;;;1.88;;
64339;SDS011;50674;53.290;-9.080;2022-07-12T23:13:25;6.45;;;2.00;;
64339;SDS011;50674;53.290;-9.080;2022-07-12T23:22:23;6.38;;;1.92;;
64339;SDS011;50674;53.290;-9.080;2022-07-12T23:27:52;7.43;;;1.98;;
64339;SDS011;50674;53.290;-9.080;2022-07-12T23:43:00;5.80;;;1.88;;
64339;SDS011;50674;53.290;-9.080;2022-07-12T23:48:47;10.23;;;1.95;;
64339;SDS011;50674;53.290;-9.080;2022-07-12T23:54:34;6.95;;;1.88;;
